Time;durP1;ratioP1;P1;durP2;ratioP2;P2;SDS_P1;SDS_P2;PMS_P1;PMS_P2;Temp;Humidity;BMP_temperature;BMP_pressure;BME280_temperature;BME280_humidity;BME280_pressure;Samples;Min_cycle;Max_cycle;Signal;HPM_P1;HPM_P2
2023/09/20 00:01:37;;;;;;;;;;;16.40;99.90;;;;;;5094341;28;20071;-75
2023/09/20 00:04:06;;;;;;;0.30;0.30;;;16.40;99.90;;;;;;5102443;28;19955;-75
2023/09/20 00:06:32;;;;;;;1.40;1.30;;;16.40;99.90;;;;;;5101348;28;20137;-75
2023/09/20 00:09:00;;;;;;;;;;;16.40;99.90;;;;;;5100971;28;20084;-75
2023/09/20 00:11:25;;;;;;;0.65;0.60;;;16.40;99.90;;;;;;5096163;28;19927;-75
2023/09/20 00:13:52;;;;;;;0.35;0.35;;;16.40;99.90;;;;;;5100956;28;20906;-75
2023/09/20 00:16:19;;;;;;;0.93;0.65;;;16.40;99.90;;;;;;5101522;28;20043;-75
2023/09/20 00:18:44;;;;;;;;;;;16.40;99.90;;;;;;5092426;28;20442;-75
2023/09/20 00:21:11;;;;;;;0.30;0.30;;;16.40;99.90;;;;;;5097449;28;19969;-76
2023/09/20 00:23:37;;;;;;;0.30;0.30;;;16.40;99.90;;;;;;5100452;28;20043;-75
2023/09/20 00:26:03;;;;;;;0.93;0.93;;;16.40;99.90;;;;;;5104855;28;20055;-76
2023/09/20 00:28:30;;;;;;;0.30;0.30;;;16.40;99.90;;;;;;5104673;28;20047;-75
2023/09/20 00:30:56;;;;;;;0.30;0.30;;;16.40;99.90;;;;;;5100169;28;20064;-76
2023/09/20 00:33:22;;;;;;;1.88;1.65;;;16.40;99.90;;;;;;5103112;28;20512;-77
2023/09/20 00:35:48;;;;;;;0.82;0.82;;;16.40;99.90;;;;;;5100458;28;20051;-76
2023/09/20 00:38:16;;;;;;;;;;;16.40;99.90;;;;;;5104584;28;20047;-76
2023/09/20 00:40:43;;;;;;;1.60;0.50;;;16.40;99.90;;;;;;5105705;28;19963;-76
2023/09/20 00:43:11;;;;;;;0.52;0.52;;;16.40;99.90;;;;;;5102986;28;20055;-76
2023/09/20 00:45:40;;;;;;;0.35;0.35;;;16.40;99.90;;;;;;5102115;28;20122;-76
2023/09/20 00:48:07;;;;;;;0.57;0.57;;;16.40;99.90;;;;;;5113921;27;20048;-76
2023/09/20 00:50:35;;;;;;;0.52;0.52;;;16.40;99.90;;;;;;5104695;28;20051;-76
2023/09/20 00:53:06;;;;;;;0.20;0.20;;;16.40;99.90;;;;;;5097906;28;20075;-76
2023/09/20 00:55:34;;;;;;;0.90;0.90;;;16.40;99.90;;;;;;5096047;28;20040;-76
2023/09/20 00:58:07;;;;;;;0.40;0.35;;;16.40;99.90;;;;;;5100751;28;20183;-76
2023/09/20 01:00:36;;;;;;;2.05;0.85;;;16.40;99.90;;;;;;5094460;28;20047;-76
2023/09/20 01:03:04;;;;;;;0.40;0.40;;;15.90;99.90;;;;;;5103578;28;20752;-75
2023/09/20 01:05:34;;;;;;;0.30;0.30;;;16.40;99.90;;;;;;5099332;28;20070;-75
2023/09/20 01:08:01;;;;;;;3.00;2.47;;;16.40;99.90;;;;;;5105674;28;20071;-76
2023/09/20 01:10:27;;;;;;;0.30;0.30;;;16.40;99.90;;;;;;5103043;28;20040;-76
2023/09/20 01:13:02;;;;;;;0.55;0.55;;;16.40;99.90;;;;;;5100070;28;20388;-76
2023/09/20 01:15:29;;;;;;;0.20;0.20;;;16.40;99.90;;;;;;5100951;27;20057;-75
2023/09/20 01:17:57;;;;;;;0.38;0.25;;;16.40;99.90;;;;;;5099228;28;20051;-77
2023/09/20 01:20:24;;;;;;;0.47;0.47;;;16.40;99.90;;;;;;5104339;28;20044;-75
2023/09/20 01:22:51;;;;;;;0.45;0.45;;;16.40;99.90;;;;;;5101037;28;20047;-76
2023/09/20 01:25:25;;;;;;;1.20;1.08;;;16.50;99.90;;;;;;5099857;28;20039;-75
2023/09/20 01:27:55;;;;;;;0.20;0.20;;;16.40;99.90;;;;;;5095269;28;20043;-75
2023/09/20 01:30:25;;;;;;;0.65;0.65;;;16.40;99.90;;;;;;5098403;28;20094;-76
2023/09/20 01:32:55;;;;;;;0.30;0.30;;;16.40;99.90;;;;;;5100048;28;20136;-76
2023/09/20 01:35:23;;;;;;;0.77;0.65;;;16.50;99.90;;;;;;5103270;28;20099;-76
2023/09/20 01:37:52;;;;;;;0.45;0.45;;;16.50;99.90;;;;;;5099735;28;20442;-75
2023/09/20 01:40:26;;;;;;;0.98;0.75;;;16.50;99.90;;;;;;5100482;28;20486;-76
2023/09/20 01:42:53;;;;;;;0.50;0.50;;;16.40;99.90;;;;;;5101127;28;20119;-75
2023/09/20 01:45:20;;;;;;;0.20;0.20;;;16.50;99.90;;;;;;5099522;28;20054;-76
2023/09/20 01:47:49;;;;;;;0.30;0.30;;;16.50;99.90;;;;;;5097543;28;20115;-75
2023/09/20 01:50:19;;;;;;;0.38;0.38;;;16.50;99.90;;;;;;5095795;28;20048;-76
2023/09/20 01:52:49;;;;;;;1.35;0.75;;;16.40;99.90;;;;;;5097666;28;20089;-76
2023/09/20 01:55:21;;;;;;;1.05;1.05;;;16.30;99.90;;;;;;5104389;28;20100;-75
2023/09/20 01:57:54;;;;;;;0.30;0.30;;;16.50;99.90;;;;;;5098231;28;20039;-76
2023/09/20 02:00:22;;;;;;;0.20;0.20;;;16.50;99.90;;;;;;5105714;28;20040;-75
2023/09/20 02:02:58;;;;;;;0.75;0.75;;;16.50;99.90;;;;;;5110339;27;20483;-76
2023/09/20 02:05:25;;;;;;;0.32;0.32;;;16.50;99.90;;;;;;5107102;28;20044;-75
2023/09/20 02:07:57;;;;;;;0.25;0.25;;;16.50;99.90;;;;;;5106283;28;20432;-75
2023/09/20 02:10:23;;;;;;;0.80;0.80;;;16.60;99.90;;;;;;5106445;28;20093;-75
2023/09/20 02:12:53;;;;;;;;;;;16.60;99.90;;;;;;5105699;28;20071;-76
2023/09/20 02:15:20;;;;;;;0.30;0.30;;;16.60;99.90;;;;;;5103093;28;19927;-75
2023/09/20 02:17:46;;;;;;;0.30;0.30;;;16.60;99.90;;;;;;5103428;28;20711;-75
2023/09/20 02:20:19;;;;;;;0.80;0.77;;;16.60;99.90;;;;;;5099611;28;20126;-76
2023/09/20 02:22:48;;;;;;;0.60;0.60;;;16.60;99.90;;;;;;5097067;28;20093;-75
2023/09/20 02:25:17;;;;;;;0.30;0.30;;;16.60;99.90;;;;;;5102796;28;20066;-75
2023/09/20 02:27:50;;;;;;;0.40;0.40;;;16.60;99.90;;;;;;5097814;28;20047;-74
2023/09/20 02:30:24;;;;;;;0.73;0.73;;;16.70;99.90;;;;;;5100589;28;20056;-75
2023/09/20 02:32:52;;;;;;;1.35;0.95;;;16.60;99.90;;;;;;5100015;28;20115;-75
2023/09/20 02:35:19;;;;;;;0.85;0.68;;;16.70;99.90;;;;;;5101183;28;20122;-76
2023/09/20 02:37:46;;;;;;;0.30;0.30;;;16.70;99.90;;;;;;5100886;28;20048;-75
2023/09/20 02:40:13;;;;;;;0.30;0.30;;;16.70;99.90;;;;;;5102899;28;20044;-75
2023/09/20 02:42:53;;;;;;;0.40;0.40;;;16.70;99.90;;;;;;5095822;28;20040;-76
2023/09/20 02:45:20;;;;;;;1.33;1.23;;;16.70;99.90;;;;;;5095379;28;20047;-76
2023/09/20 02:47:47;;;;;;;0.90;0.77;;;16.70;99.90;;;;;;5095345;28;20046;-76
2023/09/20 02:50:16;;;;;;;0.70;0.70;;;16.70;99.90;;;;;;5096357;28;20067;-75
2023/09/20 02:52:44;;;;;;;0.20;0.20;;;16.70;99.90;;;;;;5102905;28;20044;-76
2023/09/20 02:55:12;;;;;;;0.60;0.60;;;16.80;99.90;;;;;;5102502;28;20044;-76
2023/09/20 02:57:42;;;;;;;0.40;0.40;;;16.70;99.90;;;;;;5100805;28;20186;-77
2023/09/20 03:00:16;;;;;;;0.55;0.38;;;16.70;99.90;;;;;;5104658;28;20613;-76
2023/09/20 03:02:44;;;;;;;0.30;0.30;;;16.80;99.90;;;;;;5103775;28;20043;-75
2023/09/20 03:05:11;;;;;;;0.57;0.57;;;16.80;99.90;;;;;;5098957;28;20406;-75
2023/09/20 03:07:37;;;;;;;0.80;0.60;;;16.80;99.90;;;;;;5107180;28;20044;-75
2023/09/20 03:10:05;;;;;;;;;;;16.70;99.90;;;;;;5105194;28;20051;-75
2023/09/20 03:12:33;;;;;;;1.33;1.23;;;16.70;99.90;;;;;;5098734;28;19919;-75
2023/09/20 03:15:04;;;;;;;0.30;0.30;;;16.80;99.90;;;;;;5104382;27;20055;-75
2023/09/20 03:17:31;;;;;;;0.20;0.20;;;16.70;99.90;;;;;;5103311;28;20047;-76
2023/09/20 03:19:57;;;;;;;0.60;0.60;;;16.70;99.90;;;;;;5105943;28;20062;-76
2023/09/20 03:22:22;;;;;;;0.65;0.65;;;16.70;99.90;;;;;;5103448;28;20430;-76
2023/09/20 03:24:48;;;;;;;;;;;16.70;99.90;;;;;;5100200;28;20031;-76
2023/09/20 03:27:17;;;;;;;0.22;0.22;;;16.80;99.90;;;;;;5100777;27;20015;-76
2023/09/20 03:29:46;;;;;;;0.57;0.57;;;16.70;99.90;;;;;;5101478;28;20115;-76
2023/09/20 03:32:15;;;;;;;0.40;0.40;;;16.80;99.90;;;;;;5104210;28;20055;-76
2023/09/20 03:34:41;;;;;;;1.45;1.30;;;16.80;99.90;;;;;;5096348;28;20112;-76
2023/09/20 03:37:09;;;;;;;0.43;0.43;;;16.80;99.90;;;;;;5101960;28;20058;-76
2023/09/20 03:39:40;;;;;;;0.38;0.38;;;16.80;99.90;;;;;;5103992;28;20105;-76
2023/09/20 03:42:09;;;;;;;0.45;0.45;;;16.90;99.90;;;;;;5096995;28;20070;-76
2023/09/20 03:44:35;;;;;;;0.20;0.20;;;16.90;99.90;;;;;;5103961;28;20406;-76
2023/09/20 03:47:00;;;;;;;;;;;16.90;99.90;;;;;;5101010;28;20039;-77
2023/09/20 03:49:26;;;;;;;0.13;0.13;;;16.90;99.90;;;;;;5101875;28;19928;-76
2023/09/20 03:51:52;;;;;;;;;;;16.90;99.90;;;;;;5101149;28;20056;-76
2023/09/20 03:54:17;;;;;;;0.30;0.30;;;16.90;99.90;;;;;;5104587;28;19924;-76
2023/09/20 03:56:44;;;;;;;;;;;16.80;99.90;;;;;;5099751;28;20640;-76
2023/09/20 03:59:12;;;;;;;0.30;0.30;;;16.80;99.90;;;;;;5098528;28;19978;-76
2023/09/20 04:01:38;;;;;;;0.25;0.25;;;16.80;99.90;;;;;;5101485;28;20051;-76
2023/09/20 04:04:04;;;;;;;0.40;0.40;;;16.80;99.90;;;;;;5099608;28;20056;-76
2023/09/20 04:06:34;;;;;;;0.30;0.30;;;16.80;99.90;;;;;;5101838;28;20048;-76
2023/09/20 04:09:09;;;;;;;0.57;0.57;;;16.80;99.90;;;;;;5101755;28;20486;-76
2023/09/20 04:11:40;;;;;;;0.40;0.40;;;16.80;99.90;;;;;;5100093;28;20035;-77
2023/09/20 04:14:09;;;;;;;0.30;0.30;;;16.80;99.90;;;;;;5104707;28;20473;-76
2023/09/20 04:16:39;;;;;;;1.85;1.75;;;16.80;99.90;;;;;;5100764;28;20039;-76
2023/09/20 04:19:06;;;;;;;0.40;0.40;;;16.80;99.90;;;;;;5101518;28;20046;-77
2023/09/20 04:21:32;;;;;;;0.57;0.57;;;16.80;99.90;;;;;;5105240;28;20040;-77
2023/09/20 04:24:02;;;;;;;0.65;0.65;;;16.80;99.90;;;;;;5103799;28;20054;-76
2023/09/20 04:26:28;;;;;;;0.47;0.47;;;16.80;99.90;;;;;;5095349;28;20044;-76
2023/09/20 04:28:55;;;;;;;;;;;16.80;99.90;;;;;;5101960;28;20051;-77
2023/09/20 04:31:22;;;;;;;0.50;0.50;;;16.70;99.90;;;;;;5105361;28;19965;-76
2023/09/20 04:33:48;;;;;;;0.30;0.30;;;16.70;99.90;;;;;;5100796;28;20051;-76
2023/09/20 04:36:14;;;;;;;;;;;16.70;99.90;;;;;;5105652;28;20905;-76
2023/09/20 04:38:41;;;;;;;0.30;0.30;;;16.70;99.90;;;;;;5105281;28;19923;-76
2023/09/20 04:41:11;;;;;;;0.30;0.30;;;16.70;99.90;;;;;;5102951;28;20508;-76
2023/09/20 04:43:38;;;;;;;1.25;1.25;;;16.70;99.90;;;;;;5104595;28;20047;-76
2023/09/20 04:46:04;;;;;;;0.38;0.38;;;16.60;99.90;;;;;;5103887;28;20527;-76
2023/09/20 04:48:31;;;;;;;;;;;16.50;99.90;;;;;;5101394;28;20074;-76
2023/09/20 04:50:57;;;;;;;0.40;0.40;;;16.50;99.90;;;;;;5102269;28;20018;-77
2023/09/20 04:53:23;;;;;;;0.57;0.57;;;16.40;99.90;;;;;;5100447;28;20705;-76
2023/09/20 04:55:49;;;;;;;;;;;16.30;99.90;;;;;;5095646;28;20039;-76
2023/09/20 04:58:17;;;;;;;0.30;0.30;;;16.20;99.90;;;;;;5103009;28;20365;-76
2023/09/20 05:00:43;;;;;;;0.50;0.50;;;16.20;99.90;;;;;;5096885;28;20123;-76
2023/09/20 05:03:10;;;;;;;0.50;0.50;;;16.10;99.90;;;;;;5104437;28;20151;-76
2023/09/20 05:05:35;;;;;;;0.40;0.40;;;16.10;99.90;;;;;;5098776;28;20091;-76
2023/09/20 05:08:02;;;;;;;;;;;16.10;99.90;;;;;;5103292;28;21829;-77
2023/09/20 05:10:27;;;;;;;0.35;0.35;;;16.00;99.90;;;;;;5099137;28;19923;-76
2023/09/20 05:12:53;;;;;;;0.40;0.40;;;15.90;99.90;;;;;;5099103;28;20054;-76
2023/09/20 05:15:18;;;;;;;;;;;15.90;99.90;;;;;;5093510;28;20124;-76
2023/09/20 05:17:45;;;;;;;0.25;0.25;;;15.80;99.90;;;;;;5095834;28;19946;-75
2023/09/20 05:20:14;;;;;;;0.35;0.30;;;15.70;99.90;;;;;;5098990;28;20044;-75
2023/09/20 05:22:43;;;;;;;1.75;0.60;;;15.70;99.90;;;;;;5099602;28;20154;-76
2023/09/20 05:25:09;;;;;;;0.28;0.28;;;15.70;99.90;;;;;;5096522;28;20105;-75
2023/09/20 05:27:35;;;;;;;0.38;0.38;;;15.60;99.90;;;;;;5095682;28;20549;-75
2023/09/20 05:30:01;;;;;;;0.30;0.30;;;15.70;99.90;;;;;;5101334;28;20070;-75
2023/09/20 05:32:28;;;;;;;0.30;0.30;;;15.80;99.90;;;;;;5103209;28;20485;-76
2023/09/20 05:34:54;;;;;;;0.38;0.38;;;15.80;99.90;;;;;;5100391;28;20043;-76
2023/09/20 05:37:20;;;;;;;0.22;0.22;;;15.90;99.90;;;;;;5099794;28;20062;-76
2023/09/20 05:39:48;;;;;;;0.80;0.80;;;15.80;99.90;;;;;;5092940;28;20669;-76
2023/09/20 05:42:17;;;;;;;0.90;0.90;;;15.80;99.90;;;;;;5087149;28;20397;-75
2023/09/20 05:44:43;;;;;;;0.77;0.75;;;15.90;99.90;;;;;;5098590;28;20370;-74
2023/09/20 05:47:09;;;;;;;;;;;15.80;99.90;;;;;;5091561;27;20050;-76
2023/09/20 05:49:35;;;;;;;2.75;0.40;;;15.80;99.90;;;;;;5095861;28;20248;-75
2023/09/20 05:52:05;;;;;;;0.50;0.50;;;15.90;99.90;;;;;;5098356;27;20388;-76
2023/09/20 05:54:31;;;;;;;0.10;0.10;;;16.00;99.90;;;;;;5094972;28;20052;-75
2023/09/20 05:56:56;;;;;;;0.47;0.47;;;16.00;99.90;;;;;;5102244;27;20587;-75
2023/09/20 05:59:22;;;;;;;;;;;16.00;99.90;;;;;;5100639;28;20943;-75
2023/09/20 06:01:48;;;;;;;0.32;0.32;;;16.00;99.90;;;;;;5097628;28;20262;-76
2023/09/20 06:04:13;;;;;;;0.68;0.68;;;16.00;99.90;;;;;;5097003;28;20048;-75
2023/09/20 06:06:39;;;;;;;;;;;16.00;99.90;;;;;;5100258;28;20135;-75
2023/09/20 06:09:05;;;;;;;0.20;0.20;;;15.90;99.90;;;;;;5096744;28;20275;-75
2023/09/20 06:11:31;;;;;;;;;;;16.00;99.90;;;;;;5091662;28;20046;-75
2023/09/20 06:13:56;;;;;;;1.02;0.75;;;16.00;99.90;;;;;;5091532;28;19928;-75
2023/09/20 06:16:22;;;;;;;0.55;0.52;;;16.00;99.90;;;;;;5102315;28;20108;-75
2023/09/20 06:18:49;;;;;;;0.30;0.30;;;16.10;99.90;;;;;;5097826;28;20074;-75
2023/09/20 06:21:17;;;;;;;0.30;0.30;;;16.10;99.90;;;;;;5099349;28;20135;-76
2023/09/20 06:23:44;;;;;;;0.70;0.63;;;16.30;99.90;;;;;;5098600;28;20063;-75
2023/09/20 06:26:12;;;;;;;0.90;0.65;;;16.30;99.90;;;;;;5095107;28;20048;-76
2023/09/20 06:28:41;;;;;;;0.17;0.17;;;16.40;99.90;;;;;;5098721;28;20055;-75
2023/09/20 06:31:09;;;;;;;0.20;0.20;;;16.40;99.90;;;;;;5099522;28;20112;-75
2023/09/20 06:33:34;;;;;;;0.40;0.40;;;16.40;99.90;;;;;;5099419;28;20063;-75
2023/09/20 06:36:00;;;;;;;;;;;16.40;99.90;;;;;;5099356;28;20096;-75
2023/09/20 06:38:25;;;;;;;1.20;0.93;;;16.40;99.90;;;;;;5101468;28;19928;-75
2023/09/20 06:40:52;;;;;;;;;;;16.40;99.90;;;;;;5100684;28;20106;-75
2023/09/20 06:43:18;;;;;;;0.20;0.20;;;16.40;99.90;;;;;;5098502;28;19924;-75
2023/09/20 06:45:50;;;;;;;;;;;16.40;99.90;;;;;;5105756;28;20054;-75
2023/09/20 06:48:23;;;;;;;0.30;0.30;;;16.40;99.90;;;;;;5099493;28;19928;-75
2023/09/20 06:50:52;;;;;;;1.02;1.02;;;16.40;99.90;;;;;;5100666;28;20039;-75
2023/09/20 06:53:19;;;;;;;0.30;0.30;;;16.40;99.90;;;;;;5101265;28;20047;-75
2023/09/20 06:55:47;;;;;;;1.77;1.33;;;16.50;99.90;;;;;;5101151;28;20045;-75
2023/09/20 06:58:13;;;;;;;0.28;0.28;;;16.50;99.90;;;;;;5096675;28;20108;-75
2023/09/20 07:00:39;;;;;;;;;;;16.50;99.90;;;;;;5099829;28;20067;-75
2023/09/20 07:03:05;;;;;;;0.30;0.30;;;16.60;99.90;;;;;;5100305;28;19967;-76
2023/09/20 07:05:31;;;;;;;2.40;0.95;;;16.60;99.90;;;;;;5101742;28;20043;-76
2023/09/20 07:07:58;;;;;;;;;;;16.60;99.90;;;;;;5106426;28;20039;-76
2023/09/20 07:10:25;;;;;;;;;;;16.60;99.90;;;;;;5099411;28;19975;-76
2023/09/20 07:12:54;;;;;;;0.52;0.52;;;16.60;99.90;;;;;;5105100;28;21810;-75
2023/09/20 07:15:21;;;;;;;0.63;0.30;;;16.60;99.90;;;;;;5096829;28;20044;-75
2023/09/20 07:17:58;;;;;;;0.50;0.50;;;16.60;99.90;;;;;;5102392;28;20063;-75
2023/09/20 07:20:24;;;;;;;0.82;0.82;;;16.70;99.90;;;;;;5099201;28;20051;-79
2023/09/20 07:22:51;;;;;;;0.73;0.73;;;16.70;99.90;;;;;;5097406;28;20078;-74
2023/09/20 07:25:19;;;;;;;0.40;0.40;;;16.80;99.90;;;;;;5099050;28;20058;-74
2023/09/20 07:27:50;;;;;;;0.75;0.75;;;16.80;99.90;;;;;;5101845;28;20374;-74
2023/09/20 07:30:19;;;;;;;1.02;0.52;;;16.90;99.90;;;;;;5098929;28;20376;-74
2023/09/20 07:32:47;;;;;;;0.30;0.30;;;17.00;99.90;;;;;;5097899;28;20138;-74
2023/09/20 07:38:02;;;;;;;0.40;0.40;;;17.20;99.90;;;;;;5102501;28;20051;-74
2023/09/20 07:40:33;;;;;;;0.88;0.88;;;17.40;99.90;;;;;;5099988;28;20067;-74
2023/09/20 07:43:06;;;;;;;0.88;0.85;;;17.50;99.90;;;;;;5101772;28;20135;-74
2023/09/20 07:45:38;;;;;;;0.30;0.30;;;17.70;99.90;;;;;;5102114;28;20067;-73
2023/09/20 07:48:12;;;;;;;0.38;0.38;;;17.90;99.90;;;;;;5103379;28;20058;-74
2023/09/20 07:50:49;;;;;;;0.30;0.30;;;17.80;99.90;;;;;;5106598;28;20154;-74
2023/09/20 07:53:19;;;;;;;0.35;0.35;;;17.80;99.90;;;;;;5099334;28;20071;-75
2023/09/20 07:56:11;;;;;;;1.20;1.13;;;17.70;99.90;;;;;;5097431;28;20082;-74
2023/09/20 07:58:40;;;;;;;0.98;0.98;;;17.70;99.90;;;;;;5100858;28;20046;-74
2023/09/20 08:01:20;;;;;;;0.65;0.43;;;17.60;99.90;;;;;;5107967;28;20401;-74
2023/09/20 08:03:53;;;;;;;1.77;1.67;;;17.60;99.90;;;;;;5107225;28;20546;-75
2023/09/20 08:06:23;;;;;;;1.33;0.43;;;17.50;99.90;;;;;;5102194;28;20105;-75
2023/09/20 08:08:49;;;;;;;0.65;0.65;;;17.60;99.90;;;;;;5102940;28;20050;-75
2023/09/20 08:11:15;;;;;;;;;;;17.60;99.90;;;;;;5105954;28;20043;-75
2023/09/20 08:13:41;;;;;;;0.98;0.55;;;17.70;99.90;;;;;;5107694;28;19963;-74
2023/09/20 08:16:09;;;;;;;;;;;17.80;99.90;;;;;;5103513;28;20569;-74
2023/09/20 08:21:20;;;;;;;0.40;0.40;;;18.00;99.90;;;;;;5101064;28;20052;-75
2023/09/20 08:59:54;;;;;;;0.40;0.40;;;18.60;99.90;;;;;;5100561;28;20048;-75
2023/09/20 09:02:24;;;;;;;0.95;0.25;;;18.60;99.90;;;;;;5099085;28;20142;-75
2023/09/20 09:04:53;;;;;;;0.40;0.40;;;18.50;99.90;;;;;;5103903;28;20058;-75
2023/09/20 09:07:22;;;;;;;0.32;0.32;;;18.50;99.90;;;;;;5106141;28;20074;-75
2023/09/20 09:09:49;;;;;;;0.35;0.35;;;18.50;99.90;;;;;;5105011;28;20047;-75
2023/09/20 09:12:15;;;;;;;0.63;0.63;;;18.50;99.90;;;;;;5097144;28;20135;-75
2023/09/20 09:14:42;;;;;;;0.90;0.90;;;18.50;99.90;;;;;;5105049;28;20040;-75
2023/09/20 09:17:09;;;;;;;0.45;0.45;;;18.50;99.90;;;;;;5097237;28;20531;-75
2023/09/20 09:19:36;;;;;;;0.47;0.47;;;18.50;99.90;;;;;;5100362;28;20160;-76
2023/09/20 09:22:02;;;;;;;0.32;0.32;;;18.50;99.90;;;;;;5103868;28;20040;-75
2023/09/20 09:24:40;;;;;;;0.30;0.30;;;18.40;99.90;;;;;;5101094;28;20067;-75
2023/09/20 09:27:08;;;;;;;0.30;0.30;;;18.40;99.90;;;;;;5103286;28;20048;-75
2023/09/20 09:29:34;;;;;;;17.83;1.25;;;18.40;99.90;;;;;;5105175;28;21752;-75
2023/09/20 09:32:04;;;;;;;2.67;0.70;;;18.40;99.90;;;;;;5105013;28;20083;-74
2023/09/20 09:34:31;;;;;;;0.55;0.55;;;18.40;99.90;;;;;;5104616;28;20252;-75
2023/09/20 09:36:57;;;;;;;0.30;0.30;;;18.40;99.90;;;;;;5100402;28;20047;-74
2023/09/20 09:39:26;;;;;;;0.55;0.38;;;18.40;99.90;;;;;;5096643;28;20075;-75
2023/09/20 09:41:53;;;;;;;0.30;0.30;;;18.50;99.90;;;;;;5083712;28;20040;-75
2023/09/20 09:44:21;;;;;;;0.45;0.45;;;18.60;99.90;;;;;;5097633;28;20056;-75
2023/09/20 09:46:47;;;;;;;0.30;0.30;;;18.60;99.90;;;;;;5097525;28;20108;-74
2023/09/20 09:49:16;;;;;;;;;;;18.70;99.90;;;;;;5098086;28;20260;-75
2023/09/20 09:51:46;;;;;;;0.70;0.70;;;18.70;99.90;;;;;;5083091;28;19942;-75
2023/09/20 09:54:15;;;;;;;0.43;0.43;;;18.80;99.90;;;;;;5101858;28;20047;-75
2023/09/20 09:56:41;;;;;;;0.60;0.60;;;18.90;99.90;;;;;;5099531;28;20093;-76
2023/09/20 09:59:07;;;;;;;0.30;0.30;;;18.80;99.90;;;;;;5098028;28;20173;-76
2023/09/20 10:01:38;;;;;;;0.57;0.50;;;18.90;99.90;;;;;;5094338;28;20051;-75
2023/09/20 10:04:08;;;;;;;0.68;0.68;;;19.00;99.90;;;;;;5092162;28;20044;-75
2023/09/20 10:07:01;;;;;;;3.60;3.33;;;19.00;99.90;;;;;;5092722;28;20140;-75
2023/09/20 10:09:34;;;;;;;0.47;0.47;;;18.90;99.90;;;;;;5095785;28;20505;-75
2023/09/20 10:12:01;;;;;;;0.52;0.45;;;18.90;99.90;;;;;;5100444;28;20048;-75
2023/09/20 10:14:27;;;;;;;0.40;0.40;;;18.90;99.90;;;;;;5099300;28;20055;-75
2023/09/20 10:16:54;;;;;;;0.47;0.47;;;18.90;99.90;;;;;;5100576;28;20051;-75
2023/09/20 10:19:19;;;;;;;0.68;0.68;;;19.00;99.90;;;;;;5094909;27;20066;-75
2023/09/20 10:22:13;;;;;;;0.50;0.50;;;19.10;99.90;;;;;;5096395;28;20497;-75
2023/09/20 10:25:01;;;;;;;1.85;0.43;;;19.10;99.90;;;;;;5093785;28;20059;-75
2023/09/20 10:27:35;;;;;;;0.88;0.82;;;19.20;99.90;;;;;;5095904;28;20146;-75
2023/09/20 10:30:09;;;;;;;0.40;0.40;;;19.30;99.90;;;;;;5095947;28;20133;-75
2023/09/20 10:32:43;;;;;;;0.40;0.40;;;19.30;99.90;;;;;;5094960;28;20497;-76
2023/09/20 10:35:35;;;;;;;0.40;0.40;;;19.40;99.90;;;;;;5093153;28;20132;-76
2023/09/20 10:38:07;;;;;;;0.52;0.52;;;19.50;99.90;;;;;;5097850;28;20452;-75
2023/09/20 10:40:45;;;;;;;0.52;0.52;;;19.40;99.90;;;;;;5097255;28;20450;-75
2023/09/20 10:43:35;;;;;;;0.22;0.22;;;19.40;99.90;;;;;;5093417;28;20503;-76
2023/09/20 10:46:17;;;;;;;0.35;0.35;;;19.50;99.90;;;;;;5099283;28;20042;-75
2023/09/20 10:48:51;;;;;;;0.55;0.55;;;19.50;99.90;;;;;;5096973;28;20105;-75
2023/09/20 10:51:48;;;;;;;0.50;0.50;;;19.50;99.90;;;;;;5096238;28;20370;-75
2023/09/20 10:54:18;;;;;;;0.40;0.40;;;19.40;99.90;;;;;;5092494;28;20067;-78
2023/09/20 10:56:53;;;;;;;0.40;0.40;;;19.30;99.90;;;;;;5094550;28;20088;-76
2023/09/20 10:59:26;;;;;;;1.48;1.38;;;19.20;99.90;;;;;;5093244;28;20118;-76
2023/09/20 11:01:59;;;;;;;0.52;0.52;;;19.20;99.90;;;;;;5098532;28;20035;-74
2023/09/20 11:04:25;;;;;;;1.00;0.90;;;19.20;99.90;;;;;;5095016;28;20404;-75
2023/09/20 11:06:54;;;;;;;0.55;0.55;;;19.20;99.90;;;;;;5094647;28;20031;-74
2023/09/20 11:09:24;;;;;;;0.38;0.38;;;19.30;99.90;;;;;;5091230;28;20052;-75
2023/09/20 11:11:50;;;;;;;1.08;0.40;;;19.30;99.90;;;;;;5092851;28;20036;-75
2023/09/20 11:14:18;;;;;;;0.55;0.55;;;19.40;99.90;;;;;;5096531;28;20044;-75
2023/09/20 11:16:44;;;;;;;0.60;0.43;;;19.40;99.90;;;;;;5096127;28;20055;-74
2023/09/20 11:19:13;;;;;;;0.50;0.50;;;19.30;99.90;;;;;;5091927;28;20497;-74
2023/09/20 11:21:42;;;;;;;0.20;0.20;;;19.30;99.90;;;;;;5093044;28;20524;-75
2023/09/20 11:24:12;;;;;;;0.70;0.35;;;19.30;99.90;;;;;;5103285;28;20048;-75
2023/09/20 11:26:43;;;;;;;0.52;0.52;;;19.30;99.90;;;;;;5096746;28;20134;-75
2023/09/20 11:29:09;;;;;;;0.75;0.75;;;19.30;99.90;;;;;;5097628;28;20043;-75
2023/09/20 11:31:37;;;;;;;0.20;0.20;;;19.30;99.90;;;;;;5102633;28;20062;-76
2023/09/20 11:34:05;;;;;;;1.30;1.30;;;19.40;99.90;;;;;;5099802;28;20294;-76
2023/09/20 11:36:38;;;;;;;3.20;0.85;;;19.30;99.90;;;;;;5097797;28;20040;-75
2023/09/20 11:39:05;;;;;;;1.17;0.90;;;19.30;99.90;;;;;;5098369;28;20048;-76
2023/09/20 11:41:32;;;;;;;0.40;0.40;;;19.40;99.90;;;;;;5098939;28;20047;-75
2023/09/20 11:43:58;;;;;;;0.75;0.75;;;19.50;99.90;;;;;;5101729;28;20047;-74
2023/09/20 11:46:28;;;;;;;0.40;0.40;;;19.50;99.90;;;;;;5102462;28;20046;-75
2023/09/20 11:49:02;;;;;;;0.20;0.20;;;19.40;99.90;;;;;;5092039;28;20052;-75
2023/09/20 11:51:36;;;;;;;0.30;0.30;;;19.40;99.90;;;;;;5097137;28;20044;-75
2023/09/20 11:54:05;;;;;;;0.25;0.25;;;19.50;99.90;;;;;;5098438;28;20048;-75
2023/09/20 11:56:34;;;;;;;0.30;0.30;;;19.50;99.90;;;;;;5099030;28;20043;-75
2023/09/20 11:59:11;;;;;;;0.43;0.40;;;19.50;99.90;;;;;;5099571;27;20131;-74
2023/09/20 12:01:44;;;;;;;0.20;0.20;;;19.50;99.90;;;;;;5101708;28;20043;-74
2023/09/20 12:04:10;;;;;;;0.50;0.50;;;19.50;99.90;;;;;;5108182;28;20105;-75
2023/09/20 12:06:36;;;;;;;0.60;0.60;;;19.50;99.90;;;;;;5098765;28;20052;-75
2023/09/20 12:09:03;;;;;;;0.90;0.90;;;19.60;99.90;;;;;;5099698;28;20496;-75
2023/09/20 12:11:29;;;;;;;0.20;0.20;;;19.60;99.90;;;;;;5099260;28;20448;-75
2023/09/20 12:13:56;;;;;;;0.22;0.22;;;19.50;99.90;;;;;;5105078;28;20122;-76
2023/09/20 12:16:23;;;;;;;0.30;0.30;;;19.50;99.90;;;;;;5116752;27;20105;-75
2023/09/20 12:18:54;;;;;;;0.22;0.22;;;19.50;99.90;;;;;;5103147;28;20054;-75
2023/09/20 12:21:21;;;;;;;0.55;0.55;;;19.50;99.90;;;;;;5102109;28;20039;-76
2023/09/20 12:23:47;;;;;;;0.50;0.50;;;19.50;99.90;;;;;;5097355;28;20055;-75
2023/09/20 12:26:13;;;;;;;0.57;0.43;;;19.60;99.90;;;;;;5098075;28;20043;-76
2023/09/20 12:28:39;;;;;;;0.45;0.45;;;19.80;99.90;;;;;;5102947;27;20089;-76
2023/09/20 12:31:06;;;;;;;0.17;0.17;;;19.80;99.90;;;;;;5096255;28;20091;-75
2023/09/20 12:33:32;;;;;;;0.40;0.40;;;19.80;99.90;;;;;;5103100;28;20055;-75
2023/09/20 12:36:01;;;;;;;0.10;0.10;;;19.90;99.90;;;;;;5095917;28;20047;-76
2023/09/20 12:38:30;;;;;;;1.23;0.98;;;19.90;99.90;;;;;;5097591;28;20134;-75
2023/09/20 12:40:57;;;;;;;0.52;0.52;;;19.90;99.90;;;;;;5099425;28;20047;-75
2023/09/20 12:43:23;;;;;;;0.20;0.20;;;19.90;99.90;;;;;;5099734;27;20114;-75
2023/09/20 12:45:49;;;;;;;0.55;0.55;;;19.80;99.90;;;;;;5096707;28;20044;-76
2023/09/20 12:48:14;;;;;;;0.40;0.40;;;19.80;99.90;;;;;;5102968;28;20077;-75
2023/09/20 12:50:42;;;;;;;0.88;0.88;;;19.90;99.90;;;;;;5091427;28;20134;-75
2023/09/20 12:53:09;;;;;;;0.30;0.30;;;19.90;99.90;;;;;;5096726;27;20074;-75
2023/09/20 12:55:37;;;;;;;0.30;0.30;;;20.00;99.90;;;;;;5095040;28;20055;-76
2023/09/20 12:58:04;;;;;;;0.22;0.22;;;20.00;99.90;;;;;;5099296;28;20052;-76
2023/09/20 13:00:31;;;;;;;0.50;0.50;;;20.10;99.90;;;;;;5092868;28;20055;-76
2023/09/20 13:02:59;;;;;;;0.20;0.20;;;20.10;99.90;;;;;;5094927;28;20160;-76
2023/09/20 13:05:25;;;;;;;0.30;0.30;;;20.10;99.90;;;;;;5096590;28;20115;-75
2023/09/20 13:07:51;;;;;;;0.47;0.47;;;20.20;99.90;;;;;;5099679;28;20421;-75
2023/09/20 13:10:19;;;;;;;1.85;1.75;;;20.30;99.90;;;;;;5101869;28;20051;-76
2023/09/20 13:12:47;;;;;;;0.30;0.30;;;20.30;99.90;;;;;;5102389;28;20128;-76
2023/09/20 13:15:14;;;;;;;0.50;0.50;;;20.40;99.90;;;;;;5103580;28;20051;-76
2023/09/20 13:17:45;;;;;;;0.60;0.60;;;20.50;99.90;;;;;;5100869;28;20621;-76
2023/09/20 13:20:14;;;;;;;0.25;0.25;;;20.50;99.90;;;;;;5098384;28;20055;-76
2023/09/20 13:22:42;;;;;;;0.47;0.47;;;20.60;99.90;;;;;;5104347;28;20043;-75
2023/09/20 13:25:08;;;;;;;1.80;1.00;;;20.70;99.90;;;;;;5114676;27;20044;-75
2023/09/20 13:27:38;;;;;;;0.20;0.20;;;20.60;99.90;;;;;;5104923;28;20092;-76
2023/09/20 13:30:10;;;;;;;0.30;0.30;;;20.80;99.90;;;;;;5100385;28;20051;-75
2023/09/20 13:32:37;;;;;;;0.30;0.30;;;20.80;99.90;;;;;;5100835;28;20147;-74
2023/09/20 13:35:03;;;;;;;0.57;0.57;;;20.90;99.90;;;;;;5098569;28;20875;-74
2023/09/20 13:37:29;;;;;;;0.30;0.30;;;21.30;99.90;;;;;;5099470;28;20067;-74
2023/09/20 13:39:55;;;;;;;0.65;0.65;;;21.70;99.90;;;;;;5096820;28;20051;-75
2023/09/20 13:42:21;;;;;;;0.30;0.30;;;22.00;99.90;;;;;;5100517;28;20036;-75
2023/09/20 13:44:50;;;;;;;0.43;0.43;;;22.30;99.90;;;;;;5095913;28;20054;-75